createdAt,value
2019-03-26T00:00:29.419Z,82.35
2019-03-26T00:01:29.379Z,82.25
2019-03-26T00:02:29.367Z,82.25
2019-03-26T00:03:29.358Z,82.45
2019-03-26T00:04:29.349Z,82.04
2019-03-26T00:05:29.335Z,81.94
2019-03-26T00:06:29.341Z,80.90
2019-03-26T00:07:29.311Z,80.80
2019-03-26T00:08:29.304Z,80.87
2019-03-26T00:09:29.288Z,79.66
2019-03-26T00:10:29.278Z,78.11
2019-03-26T00:11:29.299Z,78.42
2019-03-26T00:12:29.255Z,78.11
2019-03-26T00:13:29.246Z,78.80
2019-03-26T00:14:29.234Z,78.91
2019-03-26T00:15:29.221Z,78.70
2019-03-26T00:16:29.211Z,78.70
2019-03-26T00:17:29.231Z,78.49
2019-03-26T00:18:29.193Z,78.59
2019-03-26T00:19:29.176Z,78.18
2019-03-26T00:20:29.166Z,78.18
2019-03-26T00:21:29.157Z,78.59
2019-03-26T00:22:29.143Z,78.70
2019-03-26T00:23:29.149Z,78.39
2019-03-26T00:24:29.121Z,78.70
2019-03-26T00:25:29.110Z,78.49
2019-03-26T00:26:29.100Z,78.70
2019-03-26T00:27:29.086Z,78.70
2019-03-26T00:28:29.097Z,78.39
2019-03-26T00:29:29.065Z,78.45
2019-03-26T00:30:29.056Z,77.98
2019-03-26T00:31:29.043Z,77.56
2019-03-26T00:32:29.035Z,77.77
2019-03-26T00:33:36.206Z,78.08
2019-03-26T00:34:30.010Z,77.56
2019-03-26T00:35:29.001Z,77.67
2019-03-26T00:36:28.990Z,77.98
2019-03-26T00:37:28.976Z,76.64
2019-03-26T00:38:28.984Z,76.43
2019-03-26T00:39:28.970Z,77.46
2019-03-26T00:40:28.940Z,76.73
2019-03-26T00:41:28.931Z,77.15
2019-03-26T00:42:28.920Z,77.15
2019-03-26T00:43:28.909Z,76.53
2019-03-26T00:44:28.924Z,76.12
2019-03-26T00:45:28.885Z,76.43
2019-03-26T00:46:28.881Z,76.53
2019-03-26T00:47:28.865Z,76.22
2019-03-26T00:48:28.853Z,77.19
2019-03-26T00:49:28.843Z,77.81
2019-03-26T00:50:28.846Z,77.39
2019-03-26T00:51:28.820Z,77.70
2019-03-26T00:52:28.807Z,78.11
2019-03-26T00:53:28.799Z,78.01
2019-03-26T00:54:28.788Z,78.01
2019-03-26T00:55:36.427Z,77.50
2019-03-26T00:56:37.022Z,77.50
2019-03-26T00:57:36.979Z,77.60
2019-03-26T00:58:37.516Z,77.81
2019-03-26T00:59:37.056Z,77.70
2019-03-26T01:00:36.275Z,77.91
2019-03-26T01:01:37.132Z,78.01
2019-03-26T01:02:37.171Z,78.11
2019-03-26T01:03:28.683Z,78.01
2019-03-26T01:04:33.020Z,78.01
2019-03-26T01:05:28.661Z,78.11
2019-03-26T01:06:28.667Z,77.70
2019-03-26T01:07:28.644Z,78.01
2019-03-26T01:08:28.637Z,78.01
2019-03-26T01:09:28.617Z,77.50
2019-03-26T01:10:28.606Z,78.32
2019-03-26T01:11:28.622Z,77.36
2019-03-26T01:12:31.098Z,77.46
2019-03-26T01:13:28.571Z,77.08
2019-03-26T01:14:28.562Z,76.43
2019-03-26T01:15:28.549Z,76.12
2019-03-26T01:16:28.537Z,77.60
2019-03-26T01:17:28.544Z,77.50
2019-03-26T01:18:28.521Z,77.39
2019-03-26T01:19:28.506Z,77.81
2019-03-26T01:20:28.493Z,78.08
2019-03-26T01:21:28.481Z,78.22
2019-03-26T01:22:28.500Z,77.98
2019-03-26T01:23:28.460Z,78.11
2019-03-26T01:24:28.448Z,78.22
2019-03-26T01:25:28.437Z,78.42
2019-03-26T01:26:28.426Z,78.53
2019-03-26T01:27:28.413Z,78.11
2019-03-26T01:28:28.433Z,78.53
2019-03-26T01:29:28.393Z,78.11
2019-03-26T01:30:28.385Z,78.74
2019-03-26T01:31:28.371Z,78.42
2019-03-26T01:32:28.360Z,78.11
2019-03-26T01:33:28.370Z,78.18
2019-03-26T01:34:28.338Z,78.63
2019-03-26T01:35:28.325Z,78.63
2019-03-26T01:36:28.317Z,78.42
2019-03-26T01:37:28.303Z,79.01
2019-03-26T01:38:28.326Z,79.11
2019-03-26T01:39:28.290Z,78.70
2019-03-26T01:40:28.280Z,78.70
2019-03-26T01:41:28.263Z,78.74
2019-03-26T01:42:28.249Z,78.08
2019-03-26T01:43:28.236Z,78.63
2019-03-26T01:44:28.245Z,79.01
2019-03-26T01:45:28.218Z,78.08
2019-03-26T01:46:28.206Z,79.15
2019-03-26T01:47:28.195Z,78.42
2019-03-26T01:48:28.181Z,78.18
2019-03-26T01:49:28.200Z,78.80
2019-03-26T01:50:28.157Z,78.08
2019-03-26T01:51:28.156Z,78.18
2019-03-26T01:52:28.135Z,78.28
2019-03-26T01:53:28.130Z,78.80
2019-03-26T01:54:28.113Z,78.63
2019-03-26T01:55:28.118Z,78.74
2019-03-26T01:56:28.090Z,78.74
2019-03-26T01:57:28.077Z,79.32
2019-03-26T01:58:28.070Z,80.08
2019-03-26T01:59:28.062Z,80.08
2019-03-26T02:00:28.065Z,79.63
2019-03-26T02:01:28.034Z,78.91
2019-03-26T02:02:28.025Z,79.52
2019-03-26T02:03:28.014Z,80.15
2019-03-26T02:04:28.009Z,79.66
2019-03-26T02:05:28.019Z,80.29
2019-03-26T02:06:27.982Z,80.18
2019-03-26T02:07:27.967Z,79.77
2019-03-26T02:08:27.959Z,80.35
2019-03-26T02:09:27.945Z,80.18
2019-03-26T02:10:27.933Z,79.56
2019-03-26T02:11:27.941Z,80.04
2019-03-26T02:12:27.912Z,79.66
2019-03-26T02:13:27.899Z,80.35
2019-03-26T02:14:27.890Z,80.56
2019-03-26T02:15:27.878Z,80.08
2019-03-26T02:16:27.884Z,80.29
2019-03-26T02:17:27.853Z,80.39
2019-03-26T02:18:27.844Z,80.87
2019-03-26T02:19:27.835Z,80.39
2019-03-26T02:20:27.824Z,79.97
2019-03-26T02:21:27.845Z,80.08
2019-03-26T02:22:27.799Z,79.97
2019-03-26T02:23:27.789Z,80.08
2019-03-26T02:24:27.776Z,79.77
2019-03-26T02:25:27.766Z,79.87
2019-03-26T02:26:27.755Z,80.29
2019-03-26T02:27:27.760Z,80.49
2019-03-26T02:28:27.733Z,80.90
2019-03-26T02:29:27.719Z,80.15
2019-03-26T02:30:27.712Z,80.25
2019-03-26T02:31:27.700Z,80.56
2019-03-26T02:32:27.716Z,80.60
2019-03-26T02:33:27.684Z,80.56
2019-03-26T02:34:27.665Z,80.70
2019-03-26T02:35:27.655Z,80.97
2019-03-26T02:36:27.644Z,80.97
2019-03-26T02:37:27.637Z,80.87
2019-03-26T02:38:27.635Z,81.28
2019-03-26T02:39:27.610Z,81.28
2019-03-26T02:40:27.598Z,81.18
2019-03-26T02:41:27.591Z,81.18
2019-03-26T02:42:27.580Z,81.28
2019-03-26T02:43:27.584Z,80.80
2019-03-26T02:44:27.553Z,80.49
2019-03-26T02:45:27.550Z,80.15
2019-03-26T02:46:27.537Z,80.35
2019-03-26T02:47:27.523Z,80.49
2019-03-26T02:48:27.540Z,80.56
2019-03-26T02:49:27.497Z,80.66
2019-03-26T02:50:27.486Z,79.94
2019-03-26T02:51:27.474Z,80.66
2019-03-26T02:52:27.465Z,80.35
2019-03-26T02:53:27.469Z,80.29
2019-03-26T02:54:27.466Z,80.56
2019-03-26T02:55:27.434Z,80.90
2019-03-26T02:56:27.418Z,80.97
2019-03-26T02:57:27.411Z,81.28
2019-03-26T02:58:27.396Z,80.97
2019-03-26T02:59:27.420Z,81.21
2019-03-26T03:00:27.377Z,80.66
2019-03-26T03:01:27.362Z,80.76
2019-03-26T03:02:27.351Z,81.73
2019-03-26T03:03:27.340Z,81.49
2019-03-26T03:04:27.327Z,81.38
2019-03-26T03:05:35.128Z,81.63
2019-03-26T03:06:28.305Z,80.80
2019-03-26T03:07:27.293Z,81.11
2019-03-26T03:08:27.289Z,81.11
2019-03-26T03:09:27.272Z,80.80
2019-03-26T03:10:27.282Z,81.42
2019-03-26T03:11:27.252Z,81.11
2019-03-26T03:12:27.242Z,80.70
2019-03-26T03:13:27.231Z,81.01
2019-03-26T03:14:27.219Z,81.11
2019-03-26T03:15:27.249Z,81.63
2019-03-26T03:16:27.194Z,81.32
2019-03-26T03:17:27.184Z,81.21
2019-03-26T03:18:27.175Z,81.35
2019-03-26T03:19:27.162Z,81.46
2019-03-26T03:20:27.149Z,81.35
2019-03-26T03:21:27.175Z,81.87
2019-03-26T03:22:27.128Z,81.42
2019-03-26T03:23:27.118Z,81.67
2019-03-26T03:24:27.107Z,80.63
2019-03-26T03:25:27.092Z,81.87
2019-03-26T03:26:27.100Z,81.98
2019-03-26T03:27:27.071Z,81.77
2019-03-26T03:28:27.064Z,81.98
2019-03-26T03:29:27.057Z,81.46
2019-03-26T03:30:27.046Z,81.87
2019-03-26T03:31:27.057Z,81.98
2019-03-26T03:32:27.017Z,81.56
2019-03-26T03:33:27.006Z,81.46
2019-03-26T03:34:27.007Z,81.29
2019-03-26T03:35:26.983Z,82.08
2019-03-26T03:36:27.009Z,81.39
2019-03-26T03:37:26.978Z,82.01
2019-03-26T03:38:26.949Z,82.12
2019-03-26T03:39:26.941Z,82.32
2019-03-26T03:40:26.931Z,82.43
2019-03-26T03:41:26.914Z,82.43
2019-03-26T03:42:26.926Z,82.22
2019-03-26T03:43:26.893Z,82.57
2019-03-26T03:44:26.880Z,82.32
2019-03-26T03:45:26.870Z,82.32
2019-03-26T03:46:26.860Z,82.32
2019-03-26T03:47:26.877Z,82.43
2019-03-26T03:48:26.839Z,82.01
2019-03-26T03:49:26.826Z,81.91
2019-03-26T03:50:26.835Z,82.01
2019-03-26T03:51:26.804Z,82.01
2019-03-26T03:52:26.792Z,82.15
2019-03-26T03:53:26.903Z,82.12
2019-03-26T03:54:26.770Z,81.43
2019-03-26T03:55:26.760Z,81.43
2019-03-26T03:56:26.750Z,81.12
2019-03-26T03:57:26.736Z,81.43
2019-03-26T03:58:26.753Z,81.64
2019-03-26T03:59:26.714Z,81.64
2019-03-26T04:00:26.701Z,81.54
2019-03-26T04:01:26.693Z,81.84
2019-03-26T04:02:26.680Z,81.54
2019-03-26T04:03:26.668Z,81.54
2019-03-26T04:04:26.676Z,81.43
2019-03-26T04:05:26.649Z,81.43
2019-03-26T04:06:26.635Z,81.54
2019-03-26T04:07:26.625Z,81.95
2019-03-26T04:08:26.626Z,82.09
2019-03-26T04:09:26.621Z,82.09
2019-03-26T04:10:26.592Z,81.74
2019-03-26T04:11:26.584Z,82.26
2019-03-26T04:12:26.569Z,82.40
2019-03-26T04:13:26.559Z,82.57
2019-03-26T04:14:26.576Z,82.60
2019-03-26T04:15:26.537Z,82.40
2019-03-26T04:16:26.526Z,81.88
2019-03-26T04:17:26.515Z,81.99
2019-03-26T04:18:26.502Z,82.19
2019-03-26T04:19:26.501Z,82.40
2019-03-26T04:20:26.510Z,82.50
2019-03-26T04:21:26.466Z,82.40
2019-03-26T04:22:26.458Z,82.71
2019-03-26T04:23:26.447Z,82.50
2019-03-26T04:24:26.433Z,82.60
2019-03-26T04:25:26.451Z,82.50
2019-03-26T04:26:26.412Z,82.46
2019-03-26T04:27:26.401Z,82.26
2019-03-26T04:28:26.389Z,82.29
2019-03-26T04:29:26.377Z,82.81
2019-03-26T04:30:26.365Z,82.50
2019-03-26T04:31:26.374Z,82.50
2019-03-26T04:32:26.358Z,82.60
2019-03-26T04:33:26.332Z,81.88
2019-03-26T04:34:26.324Z,81.88
2019-03-26T04:35:26.307Z,82.19
2019-03-26T04:36:26.743Z,82.09
2019-03-26T04:37:26.288Z,81.99
2019-03-26T04:38:26.290Z,82.09
2019-03-26T04:39:26.265Z,82.19
2019-03-26T04:40:26.253Z,82.40
2019-03-26T04:41:26.269Z,81.88
2019-03-26T04:42:26.229Z,81.88
2019-03-26T04:43:26.246Z,82.09
2019-03-26T04:44:26.208Z,81.78
2019-03-26T04:45:26.197Z,81.57
2019-03-26T04:46:26.185Z,81.88
2019-03-26T04:47:26.192Z,82.09
2019-03-26T04:48:26.164Z,81.68
2019-03-26T04:49:26.159Z,81.61
2019-03-26T04:50:26.142Z,81.30
2019-03-26T04:51:26.129Z,80.99
2019-03-26T04:52:26.133Z,81.82
2019-03-26T04:53:26.111Z,82.13
2019-03-26T04:54:26.150Z,82.13
2019-03-26T04:55:26.087Z,82.44
2019-03-26T04:56:26.074Z,81.61
2019-03-26T04:57:26.090Z,82.17
2019-03-26T04:58:26.051Z,81.82
2019-03-26T04:59:26.043Z,82.17
2019-03-26T05:00:26.032Z,81.92
2019-03-26T05:01:26.018Z,81.82
2019-03-26T05:02:26.007Z,81.82
2019-03-26T05:03:26.012Z,81.82
2019-03-26T05:04:25.984Z,82.13
2019-03-26T05:05:25.977Z,82.13
2019-03-26T05:06:37.465Z,82.54
2019-03-26T05:07:26.949Z,82.54
2019-03-26T05:08:25.972Z,82.75
2019-03-26T05:09:25.930Z,82.13
2019-03-26T05:10:25.917Z,81.99
2019-03-26T05:11:25.908Z,81.92
2019-03-26T05:12:25.895Z,81.88
2019-03-26T05:13:25.882Z,81.47
2019-03-26T05:14:25.887Z,81.40
2019-03-26T05:15:25.862Z,81.61
2019-03-26T05:16:25.849Z,82.13
2019-03-26T05:17:25.839Z,82.13
2019-03-26T05:18:25.830Z,82.19
2019-03-26T05:19:25.847Z,82.29
2019-03-26T05:20:25.803Z,81.99
2019-03-26T05:21:25.795Z,81.99
2019-03-26T05:22:25.782Z,81.99
2019-03-26T05:23:25.773Z,82.19
2019-03-26T05:24:25.762Z,81.57
2019-03-26T05:25:25.765Z,81.37
2019-03-26T05:26:25.742Z,80.95
2019-03-26T05:27:25.726Z,81.57
2019-03-26T05:28:25.716Z,81.33
2019-03-26T05:29:25.718Z,81.05
2019-03-26T05:30:25.726Z,81.47
2019-03-26T05:31:25.680Z,80.81
2019-03-26T05:32:25.670Z,81.02
2019-03-26T05:33:25.659Z,81.12
2019-03-26T05:34:25.655Z,81.23
2019-03-26T05:35:25.635Z,80.81
2019-03-26T05:36:25.640Z,80.50
2019-03-26T05:37:25.614Z,80.91
2019-03-26T05:38:25.602Z,80.60
2019-03-26T05:39:25.591Z,80.40
2019-03-26T05:40:25.578Z,80.71
2019-03-26T05:41:25.590Z,80.50
2019-03-26T05:42:25.558Z,80.05
2019-03-26T05:43:25.546Z,80.36
2019-03-26T05:44:25.559Z,80.15
2019-03-26T05:45:25.526Z,80.36
2019-03-26T05:46:25.537Z,79.74
2019-03-26T05:47:25.499Z,80.15
2019-03-26T05:48:25.489Z,79.33
2019-03-26T05:49:25.489Z,78.70
2019-03-26T05:50:25.466Z,79.08
2019-03-26T05:51:25.454Z,79.22
2019-03-26T05:52:25.465Z,78.56
2019-03-26T05:53:25.432Z,79.08
2019-03-26T05:54:25.429Z,78.88
2019-03-26T05:55:25.411Z,78.36
2019-03-26T05:56:25.402Z,78.98
2019-03-26T05:57:25.416Z,78.46
2019-03-26T05:58:25.376Z,78.36
2019-03-26T05:59:25.365Z,78.11
2019-03-26T06:00:25.354Z,77.91
2019-03-26T06:01:25.343Z,77.70
2019-03-26T06:02:25.330Z,77.29
2019-03-26T06:03:25.363Z,77.08
2019-03-26T06:04:25.310Z,77.29
2019-03-26T06:05:25.297Z,77.43
2019-03-26T06:06:25.286Z,77.53
2019-03-26T06:07:25.275Z,77.53
2019-03-26T06:08:25.281Z,77.12
2019-03-26T06:09:25.256Z,76.81
2019-03-26T06:10:25.242Z,77.22
2019-03-26T06:11:25.232Z,77.43
2019-03-26T06:12:25.253Z,77.12
2019-03-26T06:13:25.238Z,77.43
2019-03-26T06:14:25.200Z,77.74
2019-03-26T06:15:25.189Z,78.05
2019-03-26T06:16:37.642Z,78.01
2019-03-26T06:17:26.161Z,78.01
2019-03-26T06:18:25.154Z,77.94
2019-03-26T06:19:25.161Z,77.91
2019-03-26T06:20:25.130Z,77.39
2019-03-26T06:21:25.152Z,77.60
2019-03-26T06:22:25.140Z,77.81
2019-03-26T06:23:25.098Z,77.91
2019-03-26T06:24:25.117Z,77.50
2019-03-26T06:25:25.076Z,77.70
2019-03-26T06:26:25.064Z,77.50
2019-03-26T06:27:25.054Z,77.81
2019-03-26T06:28:25.044Z,76.46
2019-03-26T06:29:25.047Z,76.53
2019-03-26T06:30:25.035Z,76.64
2019-03-26T06:31:25.008Z,76.46
2019-03-26T06:32:24.997Z,76.67
2019-03-26T06:33:24.989Z,76.43
2019-03-26T06:34:24.973Z,77.36
2019-03-26T06:35:24.989Z,77.56
2019-03-26T06:36:24.954Z,77.39
2019-03-26T06:37:24.941Z,77.29
2019-03-26T06:38:24.931Z,77.36
2019-03-26T06:39:24.919Z,78.01
2019-03-26T06:40:24.909Z,78.01
2019-03-26T06:41:24.916Z,78.11
2019-03-26T06:42:24.906Z,78.53
2019-03-26T06:43:24.879Z,78.28
2019-03-26T06:44:24.867Z,78.63
2019-03-26T06:45:24.853Z,78.63
2019-03-26T06:46:24.868Z,78.63
2019-03-26T06:47:24.831Z,78.59
2019-03-26T06:48:24.816Z,78.63
2019-03-26T06:49:24.806Z,78.59
2019-03-26T06:50:24.796Z,79.22
2019-03-26T06:51:24.786Z,78.53
2019-03-26T06:52:24.789Z,78.32
2019-03-26T06:53:24.765Z,78.28
2019-03-26T06:54:24.754Z,78.18
2019-03-26T06:55:24.742Z,78.18
2019-03-26T06:56:24.728Z,78.49
2019-03-26T06:57:34.970Z,78.42
2019-03-26T06:58:25.708Z,78.74
2019-03-26T06:59:24.732Z,78.63
2019-03-26T07:00:24.683Z,78.15
2019-03-26T07:01:24.674Z,78.77
2019-03-26T07:02:24.662Z,78.46
2019-03-26T07:03:24.709Z,78.67
2019-03-26T07:04:24.642Z,78.56
2019-03-26T07:05:24.628Z,79.33
2019-03-26T07:06:32.763Z,78.56
2019-03-26T07:07:34.300Z,78.88
2019-03-26T07:08:32.835Z,79.19
2019-03-26T07:09:32.879Z,78.77
2019-03-26T07:10:34.471Z,78.56
2019-03-26T07:11:24.560Z,78.05
2019-03-26T07:12:24.553Z,78.05
2019-03-26T07:13:24.538Z,77.01
2019-03-26T07:14:24.543Z,77.53
2019-03-26T07:15:24.523Z,77.94
2019-03-26T07:16:24.512Z,78.36
2019-03-26T07:17:24.498Z,78.67
2019-03-26T07:18:24.482Z,78.67
2019-03-26T07:19:24.504Z,78.32
2019-03-26T07:20:24.458Z,78.01
2019-03-26T07:21:24.449Z,78.11
2019-03-26T07:22:24.437Z,77.70
2019-03-26T07:23:24.429Z,77.29
2019-03-26T07:24:24.415Z,77.39
2019-03-26T07:25:24.419Z,77.70
2019-03-26T07:26:24.393Z,77.60
2019-03-26T07:27:24.383Z,78.01
2019-03-26T07:28:24.371Z,78.01
2019-03-26T07:29:24.361Z,77.39
2019-03-26T07:30:24.363Z,78.11
2019-03-26T07:31:24.340Z,78.05
2019-03-26T07:32:24.325Z,78.11
2019-03-26T07:33:24.317Z,78.01
2019-03-26T07:34:24.305Z,78.22
2019-03-26T07:35:24.318Z,77.70
2019-03-26T07:36:24.280Z,77.91
2019-03-26T07:37:24.272Z,77.19
2019-03-26T07:38:24.259Z,78.01
2019-03-26T07:39:24.249Z,77.91
2019-03-26T07:40:24.236Z,77.56
2019-03-26T07:41:24.308Z,77.15
2019-03-26T07:42:24.214Z,77.67
2019-03-26T07:43:24.207Z,77.36
2019-03-26T07:44:24.199Z,77.56
2019-03-26T07:45:24.182Z,78.28
2019-03-26T07:46:24.199Z,76.36
2019-03-26T07:47:24.160Z,76.53
2019-03-26T07:48:24.151Z,76.87
2019-03-26T07:49:24.135Z,76.43
2019-03-26T07:50:24.124Z,77.39
2019-03-26T07:51:24.115Z,76.53
2019-03-26T07:52:24.133Z,76.53
2019-03-26T07:53:24.093Z,77.87
2019-03-26T07:54:24.079Z,77.56
2019-03-26T07:55:24.069Z,77.77
2019-03-26T07:56:24.057Z,77.46
2019-03-26T07:57:24.062Z,76.43
2019-03-26T07:58:24.035Z,76.64
2019-03-26T07:59:24.027Z,75.81
2019-03-26T08:00:24.013Z,75.81
2019-03-26T08:01:24.007Z,74.98
2019-03-26T08:02:24.019Z,74.71
2019-03-26T08:03:23.979Z,74.88
2019-03-26T08:04:23.974Z,74.57
2019-03-26T08:05:29.695Z,73.74
2019-03-26T08:06:24.943Z,73.33
2019-03-26T08:07:23.935Z,71.78
2019-03-26T08:08:23.940Z,70.57
2019-03-26T08:09:24.016Z,70.98
2019-03-26T08:10:23.905Z,70.98
2019-03-26T08:11:23.890Z,69.54
2019-03-26T08:12:23.880Z,69.12
2019-03-26T08:13:23.896Z,70.57
2019-03-26T08:14:23.863Z,70.98
2019-03-26T08:15:23.881Z,70.12
2019-03-26T08:16:23.850Z,69.40
2019-03-26T08:17:23.858Z,70.23
2019-03-26T08:18:23.811Z,70.23
2019-03-26T08:19:23.818Z,70.16
2019-03-26T08:20:23.793Z,69.92
2019-03-26T08:21:23.782Z,68.82
2019-03-26T08:22:23.768Z,69.20
2019-03-26T08:23:23.762Z,70.33
2019-03-26T08:24:23.759Z,70.37
2019-03-26T08:25:23.734Z,69.51
2019-03-26T08:26:23.729Z,69.30
2019-03-26T08:27:23.713Z,70.23
2019-03-26T08:28:23.702Z,69.30
2019-03-26T08:29:23.716Z,68.88
2019-03-26T08:30:23.677Z,68.78
2019-03-26T08:31:23.670Z,68.54
2019-03-26T08:32:23.655Z,68.88
2019-03-26T08:33:23.644Z,68.65
2019-03-26T08:34:23.632Z,68.85
2019-03-26T08:35:23.661Z,68.65
2019-03-26T08:36:23.615Z,69.03
2019-03-26T08:37:23.600Z,70.30
2019-03-26T08:38:23.592Z,68.82
2019-03-26T08:39:23.583Z,68.93
2019-03-26T08:40:23.642Z,68.38
2019-03-26T08:41:23.587Z,66.94
2019-03-26T08:42:23.545Z,66.73
2019-03-26T08:43:23.531Z,68.07
2019-03-26T08:44:23.527Z,67.76
2019-03-26T08:45:23.510Z,66.70
2019-03-26T08:46:23.566Z,68.04
2019-03-26T08:47:23.503Z,67.00
2019-03-26T08:48:23.481Z,65.80
2019-03-26T08:49:23.467Z,65.91
2019-03-26T08:50:23.454Z,67.27
2019-03-26T08:51:23.444Z,66.94
2019-03-26T08:52:23.458Z,67.03
2019-03-26T08:53:23.420Z,67.45
2019-03-26T08:54:23.409Z,68.48
2019-03-26T08:55:23.400Z,67.11
2019-03-26T08:56:23.388Z,68.01
2019-03-26T08:57:23.375Z,67.25
2019-03-26T08:58:23.394Z,67.53
2019-03-26T08:59:23.353Z,63.31
2019-03-26T09:00:23.343Z,60.91
2019-03-26T09:01:23.330Z,58.11
2019-03-26T09:02:23.319Z,57.36
2019-03-26T09:03:23.308Z,55.66
2019-03-26T09:04:23.313Z,54.51
2019-03-26T09:05:23.285Z,54.08
2019-03-26T09:06:23.273Z,53.36
2019-03-26T09:07:23.264Z,55.41
2019-03-26T09:08:25.640Z,53.46
2019-03-26T09:09:23.269Z,52.36
2019-03-26T09:10:23.230Z,52.25
2019-03-26T09:11:23.220Z,53.72
2019-03-26T09:12:23.207Z,53.41
2019-03-26T09:13:23.196Z,53.51
2019-03-26T09:14:23.188Z,55.15
2019-03-26T09:15:23.202Z,54.77
2019-03-26T09:16:23.161Z,53.15
2019-03-26T09:17:23.151Z,54.17
2019-03-26T09:18:23.139Z,54.79
2019-03-26T09:19:23.128Z,53.69
2019-03-26T09:20:23.120Z,55.13
2019-03-26T09:21:23.134Z,55.95
2019-03-26T09:22:23.096Z,56.57
2019-03-26T09:23:23.084Z,56.49
2019-03-26T09:24:23.075Z,55.46
2019-03-26T09:25:23.061Z,55.87
2019-03-26T09:26:23.052Z,56.80
2019-03-26T09:27:23.066Z,55.87
2019-03-26T09:28:23.027Z,57.52
2019-03-26T09:29:23.016Z,57.21
2019-03-26T09:30:23.006Z,57.82
2019-03-26T09:31:22.995Z,58.34
2019-03-26T09:32:22.988Z,57.52
2019-03-26T09:33:23.002Z,57.73
2019-03-26T09:34:22.963Z,58.14
2019-03-26T09:35:22.950Z,58.21
2019-03-26T09:36:22.938Z,58.86
2019-03-26T09:37:22.929Z,58.62
2019-03-26T09:38:22.917Z,57.31
2019-03-26T09:39:22.919Z,56.90
2019-03-26T09:40:22.893Z,56.18
2019-03-26T09:41:22.881Z,56.80
2019-03-26T09:42:22.873Z,56.98
2019-03-26T09:43:22.867Z,57.08
2019-03-26T09:44:22.877Z,57.39
2019-03-26T09:45:22.839Z,56.57
2019-03-26T09:46:22.830Z,57.06
2019-03-26T09:47:22.820Z,55.93
2019-03-26T09:48:22.804Z,54.72
2019-03-26T09:49:22.792Z,53.36
2019-03-26T09:50:22.810Z,53.44
2019-03-26T09:51:22.772Z,53.23
2019-03-26T09:52:22.830Z,53.20
2019-03-26T09:53:22.747Z,51.85
2019-03-26T09:54:22.736Z,52.05
2019-03-26T09:55:22.727Z,51.82
2019-03-26T09:56:28.514Z,50.88
2019-03-26T09:57:23.703Z,51.50
2019-03-26T09:58:22.694Z,50.01
2019-03-26T09:59:22.680Z,48.90
2019-03-26T10:00:22.672Z,47.67
2019-03-26T10:01:22.691Z,47.37
2019-03-26T10:02:22.704Z,48.69
2019-03-26T10:03:22.640Z,45.85
2019-03-26T10:04:22.623Z,46.41
2019-03-26T10:05:22.614Z,46.00
2019-03-26T10:06:23.877Z,47.02
2019-03-26T10:07:22.618Z,45.87
2019-03-26T10:08:22.577Z,45.40
2019-03-26T10:09:22.566Z,45.57
2019-03-26T10:10:22.554Z,45.73
2019-03-26T10:11:22.542Z,47.29
2019-03-26T10:12:22.535Z,47.74
2019-03-26T10:13:22.550Z,48.99
2019-03-26T10:14:22.510Z,49.11
2019-03-26T10:15:22.502Z,50.26
2019-03-26T10:16:22.488Z,50.37
2019-03-26T10:17:22.474Z,50.29
2019-03-26T10:18:22.463Z,50.09
2019-03-26T10:19:22.486Z,49.57
2019-03-26T10:20:22.444Z,50.93
2019-03-26T10:21:22.430Z,50.62
2019-03-26T10:22:22.421Z,51.56
2019-03-26T10:23:22.409Z,51.79
2019-03-26T10:24:22.400Z,51.90
2019-03-26T10:25:22.412Z,52.41
2019-03-26T10:26:22.374Z,52.10
2019-03-26T10:27:22.364Z,53.64
2019-03-26T10:28:22.357Z,52.95
2019-03-26T10:29:30.093Z,53.54
2019-03-26T10:30:24.824Z,53.44
2019-03-26T10:31:22.317Z,53.31
2019-03-26T10:32:22.306Z,53.61
2019-03-26T10:33:22.294Z,54.46
2019-03-26T10:34:22.285Z,54.15
2019-03-26T10:35:22.272Z,54.36
2019-03-26T10:36:22.277Z,52.08
2019-03-26T10:37:22.250Z,51.67
2019-03-26T10:38:22.237Z,49.71
2019-03-26T10:39:22.228Z,50.32
2019-03-26T10:40:22.215Z,48.59
2019-03-26T10:41:22.230Z,49.08
2019-03-26T10:42:22.300Z,49.43
2019-03-26T10:43:22.178Z,50.78
2019-03-26T10:44:22.171Z,50.81
2019-03-26T10:45:22.157Z,49.82
2019-03-26T10:46:22.147Z,48.57
2019-03-26T10:47:22.162Z,49.00
2019-03-26T10:48:22.124Z,49.02
2019-03-26T10:49:22.115Z,47.86
2019-03-26T10:50:22.102Z,47.57
2019-03-26T10:51:22.090Z,49.13
2019-03-26T10:52:22.079Z,48.82
2019-03-26T10:53:22.085Z,49.33
2019-03-26T10:54:22.057Z,48.69
2019-03-26T10:55:22.045Z,49.43
2019-03-26T10:56:22.039Z,49.35
2019-03-26T10:57:22.089Z,49.17
2019-03-26T10:58:22.038Z,50.22
2019-03-26T10:59:22.003Z,50.85
2019-03-26T11:00:21.987Z,50.96
2019-03-26T11:01:21.977Z,51.80
2019-03-26T11:02:21.971Z,52.34
2019-03-26T11:03:21.956Z,51.95
2019-03-26T11:04:21.973Z,51.87
2019-03-26T11:05:21.931Z,52.39
2019-03-26T11:06:21.922Z,52.39
2019-03-26T11:07:21.909Z,53.44
2019-03-26T11:08:21.901Z,54.05
2019-03-26T11:09:26.920Z,54.05
2019-03-26T11:10:22.901Z,52.03
2019-03-26T11:11:21.863Z,49.49
2019-03-26T11:12:21.852Z,49.43
2019-03-26T11:13:21.839Z,49.05
2019-03-26T11:14:21.828Z,49.81
2019-03-26T11:15:21.817Z,50.96
2019-03-26T11:16:21.834Z,51.16
2019-03-26T11:17:21.796Z,51.80
2019-03-26T11:18:21.784Z,53.36
2019-03-26T11:19:21.774Z,53.39
2019-03-26T11:20:21.764Z,54.21
2019-03-26T11:21:21.749Z,54.72
2019-03-26T11:22:21.769Z,54.95
2019-03-26T11:23:21.730Z,55.26
2019-03-26T11:24:21.719Z,55.79
2019-03-26T11:25:21.706Z,54.97
2019-03-26T11:26:21.694Z,54.05
2019-03-26T11:27:21.684Z,55.00
2019-03-26T11:28:21.686Z,54.69
2019-03-26T11:29:21.660Z,54.79
2019-03-26T11:30:21.649Z,53.46
2019-03-26T11:31:21.638Z,53.64
2019-03-26T11:32:21.631Z,53.64
2019-03-26T11:33:21.642Z,53.41
2019-03-26T11:34:21.604Z,52.69
2019-03-26T11:35:21.598Z,53.08
2019-03-26T11:36:21.580Z,52.77
2019-03-26T11:37:21.570Z,52.56
2019-03-26T11:38:21.557Z,52.36
2019-03-26T11:39:32.069Z,53.18
2019-03-26T11:40:22.614Z,52.87
2019-03-26T11:41:21.524Z,53.59
2019-03-26T11:42:21.510Z,52.97
2019-03-26T11:43:21.502Z,53.28
2019-03-26T11:44:21.490Z,52.95
2019-03-26T11:45:21.494Z,52.72
2019-03-26T11:46:21.468Z,52.92
2019-03-26T11:47:21.454Z,52.72
2019-03-26T11:48:21.443Z,53.21
2019-03-26T11:49:21.440Z,53.54
2019-03-26T11:50:21.452Z,53.13
2019-03-26T11:51:21.410Z,53.33
2019-03-26T11:52:21.398Z,52.72
2019-03-26T11:53:21.389Z,52.54
2019-03-26T11:54:21.378Z,52.97
2019-03-26T11:55:21.915Z,53.59
2019-03-26T11:56:21.379Z,53.18
2019-03-26T11:57:21.340Z,53.18
2019-03-26T11:58:30.459Z,53.08
2019-03-26T11:59:22.317Z,52.47
2019-03-26T12:00:21.306Z,53.16
2019-03-26T12:01:21.299Z,53.46
2019-03-26T12:02:21.337Z,53.13
2019-03-26T12:03:21.273Z,53.33
2019-03-26T12:04:21.267Z,52.92
2019-03-26T12:05:21.252Z,52.85
2019-03-26T12:06:21.239Z,52.75
2019-03-26T12:07:21.226Z,52.85
2019-03-26T12:08:21.232Z,52.77
2019-03-26T12:09:21.208Z,52.75
2019-03-26T12:10:21.194Z,53.39
2019-03-26T12:11:21.182Z,54.00
2019-03-26T12:12:21.175Z,54.82
2019-03-26T12:13:21.189Z,54.10
2019-03-26T12:14:21.148Z,54.61
2019-03-26T12:15:21.136Z,55.43
2019-03-26T12:16:21.127Z,54.61
2019-03-26T12:17:21.124Z,53.49
2019-03-26T12:18:21.103Z,54.00
2019-03-26T12:19:21.123Z,53.39
2019-03-26T12:20:21.079Z,54.21
2019-03-26T12:21:21.069Z,53.49
2019-03-26T12:22:21.059Z,53.59
2019-03-26T12:23:21.044Z,52.80
2019-03-26T12:24:21.037Z,53.10
2019-03-26T12:25:21.038Z,52.80
2019-03-26T12:26:21.010Z,53.31
2019-03-26T12:27:21.002Z,53.31
2019-03-26T12:28:20.989Z,53.72
2019-03-26T12:29:20.978Z,55.15
2019-03-26T12:30:20.992Z,54.23
2019-03-26T12:31:20.960Z,53.00
2019-03-26T12:32:20.943Z,53.31
2019-03-26T12:33:20.935Z,53.20
2019-03-26T12:34:20.923Z,53.00
2019-03-26T12:35:20.908Z,53.82
2019-03-26T12:36:20.928Z,53.74
2019-03-26T12:37:20.885Z,54.05
2019-03-26T12:38:20.879Z,53.64
2019-03-26T12:39:20.919Z,53.44
2019-03-26T12:40:20.852Z,53.64
2019-03-26T12:41:20.843Z,53.54
2019-03-26T12:42:20.849Z,55.10
2019-03-26T12:43:20.821Z,54.57
2019-03-26T12:44:20.808Z,54.28
2019-03-26T12:45:20.795Z,54.57
2019-03-26T12:46:20.783Z,54.79
2019-03-26T12:47:20.802Z,54.79
2019-03-26T12:48:20.765Z,55.10
2019-03-26T12:49:20.752Z,54.90
2019-03-26T12:50:20.739Z,54.69
2019-03-26T12:51:20.730Z,54.69
2019-03-26T12:52:20.719Z,54.97